sensor_id;sensor_type;location;lat;lon;timestamp;P1;durP1;ratioP1;P2;durP2;ratioP2
69678;SDS011;56915;52.046;4.854;2023-02-15T00:02:01;60.88;;;24.45;;
69678;SDS011;56915;52.046;4.854;2023-02-15T00:04:28;55.77;;;22.37;;
69678;SDS011;56915;52.046;4.854;2023-02-15T00:07:13;55.70;;;22.83;;
69678;SDS011;56915;52.046;4.854;2023-02-15T00:09:41;52.45;;;21.23;;
69678;SDS011;56915;52.046;4.854;2023-02-15T00:12:08;52.95;;;21.27;;
69678;SDS011;56915;52.046;4.854;2023-02-15T00:14:36;55.08;;;22.05;;
69678;SDS011;56915;52.046;4.854;2023-02-15T00:17:03;48.33;;;20.20;;
69678;SDS011;56915;52.046;4.854;2023-02-15T00:19:30;38.72;;;16.73;;
69678;SDS011;56915;52.046;4.854;2023-02-15T00:21:57;35.88;;;16.23;;
69678;SDS011;56915;52.046;4.854;2023-02-15T00:24:24;43.90;;;16.40;;
69678;SDS011;56915;52.046;4.854;2023-02-15T00:26:51;44.88;;;17.63;;
69678;SDS011;56915;52.046;4.854;2023-02-15T00:29:19;55.87;;;19.97;;
69678;SDS011;56915;52.046;4.854;2023-02-15T00:31:46;57.60;;;22.10;;
69678;SDS011;56915;52.046;4.854;2023-02-15T00:34:21;50.80;;;20.30;;
69678;SDS011;56915;52.046;4.854;2023-02-15T00:36:50;41.47;;;18.20;;
69678;SDS011;56915;52.046;4.854;2023-02-15T00:39:17;44.13;;;19.00;;
69678;SDS011;56915;52.046;4.854;2023-02-15T00:41:45;60.87;;;19.07;;
69678;SDS011;56915;52.046;4.854;2023-02-15T00:44:14;49.90;;;17.90;;
69678;SDS011;56915;52.046;4.854;2023-02-15T00:46:41;50.85;;;19.83;;
69678;SDS011;56915;52.046;4.854;2023-02-15T00:49:10;49.75;;;18.17;;
69678;SDS011;56915;52.046;4.854;2023-02-15T00:51:37;35.72;;;16.63;;
69678;SDS011;56915;52.046;4.854;2023-02-15T00:54:05;48.50;;;15.70;;
69678;SDS011;56915;52.046;4.854;2023-02-15T00:56:32;54.88;;;16.73;;
69678;SDS011;56915;52.046;4.854;2023-02-15T00:58:59;78.65;;;17.25;;
69678;SDS011;56915;52.046;4.854;2023-02-15T01:01:26;78.97;;;17.65;;
69678;SDS011;56915;52.046;4.854;2023-02-15T01:03:53;121.97;;;19.48;;
69678;SDS011;56915;52.046;4.854;2023-02-15T01:06:20;43.03;;;17.07;;
69678;SDS011;56915;52.046;4.854;2023-02-15T01:08:46;37.20;;;17.38;;
69678;SDS011;56915;52.046;4.854;2023-02-15T01:11:15;40.28;;;17.25;;
69678;SDS011;56915;52.046;4.854;2023-02-15T01:13:49;41.95;;;17.10;;
69678;SDS011;56915;52.046;4.854;2023-02-15T01:16:21;37.20;;;17.00;;
69678;SDS011;56915;52.046;4.854;2023-02-15T01:18:49;39.87;;;17.57;;
69678;SDS011;56915;52.046;4.854;2023-02-15T01:21:17;44.70;;;18.90;;
69678;SDS011;56915;52.046;4.854;2023-02-15T01:23:45;45.75;;;19.85;;
69678;SDS011;56915;52.046;4.854;2023-02-15T01:26:13;48.63;;;20.27;;
69678;SDS011;56915;52.046;4.854;2023-02-15T01:28:40;51.65;;;20.30;;
69678;SDS011;56915;52.046;4.854;2023-02-15T01:31:08;49.33;;;20.20;;
69678;SDS011;56915;52.046;4.854;2023-02-15T01:33:36;65.97;;;22.05;;
69678;SDS011;56915;52.046;4.854;2023-02-15T01:36:03;60.75;;;21.77;;
69678;SDS011;56915;52.046;4.854;2023-02-15T01:38:31;57.30;;;20.80;;
69678;SDS011;56915;52.046;4.854;2023-02-15T01:40:58;55.55;;;21.15;;
69678;SDS011;56915;52.046;4.854;2023-02-15T01:43:46;58.00;;;22.13;;
69678;SDS011;56915;52.046;4.854;2023-02-15T01:46:19;57.67;;;21.70;;
69678;SDS011;56915;52.046;4.854;2023-02-15T01:48:56;64.18;;;21.85;;
69678;SDS011;56915;52.046;4.854;2023-02-15T01:51:29;52.53;;;19.70;;
69678;SDS011;56915;52.046;4.854;2023-02-15T01:53:59;49.22;;;20.30;;
69678;SDS011;56915;52.046;4.854;2023-02-15T01:56:32;55.07;;;19.43;;
69678;SDS011;56915;52.046;4.854;2023-02-15T01:59:02;58.33;;;21.75;;
69678;SDS011;56915;52.046;4.854;2023-02-15T02:01:32;54.53;;;20.95;;
69678;SDS011;56915;52.046;4.854;2023-02-15T02:07:05;61.20;;;22.27;;
69678;SDS011;56915;52.046;4.854;2023-02-15T02:09:34;63.57;;;22.40;;
69678;SDS011;56915;52.046;4.854;2023-02-15T02:12:03;68.95;;;23.73;;
69678;SDS011;56915;52.046;4.854;2023-02-15T02:14:30;69.30;;;23.75;;
69678;SDS011;56915;52.046;4.854;2023-02-15T02:30:15;78.55;;;25.58;;
69678;SDS011;56915;52.046;4.854;2023-02-15T02:36:03;78.37;;;25.60;;
69678;SDS011;56915;52.046;4.854;2023-02-15T02:38:48;76.65;;;25.73;;
69678;SDS011;56915;52.046;4.854;2023-02-15T02:41:23;82.15;;;25.95;;
69678;SDS011;56915;52.046;4.854;2023-02-15T02:46:48;76.45;;;25.88;;
69678;SDS011;56915;52.046;4.854;2023-02-15T02:49:33;91.43;;;26.50;;
69678;SDS011;56915;52.046;4.854;2023-02-15T02:54:59;83.65;;;26.45;;
69678;SDS011;56915;52.046;4.854;2023-02-15T02:57:28;81.68;;;25.83;;
69678;SDS011;56915;52.046;4.854;2023-02-15T02:59:57;86.72;;;26.27;;
69678;SDS011;56915;52.046;4.854;2023-02-15T03:02:30;76.43;;;25.93;;
69678;SDS011;56915;52.046;4.854;2023-02-15T03:05:02;83.07;;;25.58;;
69678;SDS011;56915;52.046;4.854;2023-02-15T03:07:32;71.68;;;24.15;;
69678;SDS011;56915;52.046;4.854;2023-02-15T03:10:03;76.35;;;23.63;;
69678;SDS011;56915;52.046;4.854;2023-02-15T03:12:35;76.35;;;23.17;;
69678;SDS011;56915;52.046;4.854;2023-02-15T03:15:06;95.00;;;23.10;;
69678;SDS011;56915;52.046;4.854;2023-02-15T03:17:43;75.90;;;23.20;;
69678;SDS011;56915;52.046;4.854;2023-02-15T03:20:33;103.93;;;24.70;;
69678;SDS011;56915;52.046;4.854;2023-02-15T03:23:13;79.72;;;23.10;;
69678;SDS011;56915;52.046;4.854;2023-02-15T03:25:44;78.45;;;23.77;;
69678;SDS011;56915;52.046;4.854;2023-02-15T03:28:20;74.33;;;23.43;;
69678;SDS011;56915;52.046;4.854;2023-02-15T03:30:52;124.63;;;26.75;;
69678;SDS011;56915;52.046;4.854;2023-02-15T03:33:22;117.13;;;26.40;;
69678;SDS011;56915;52.046;4.854;2023-02-15T03:36:01;175.75;;;28.80;;
69678;SDS011;56915;52.046;4.854;2023-02-15T03:38:40;100.95;;;26.42;;
69678;SDS011;56915;52.046;4.854;2023-02-15T03:41:14;80.60;;;24.23;;
69678;SDS011;56915;52.046;4.854;2023-02-15T03:43:53;125.45;;;25.40;;
69678;SDS011;56915;52.046;4.854;2023-02-15T03:49:00;125.38;;;22.90;;
69678;SDS011;56915;52.046;4.854;2023-02-15T03:51:48;317.80;;;26.30;;
69678;SDS011;56915;52.046;4.854;2023-02-15T03:54:24;255.83;;;25.57;;
69678;SDS011;56915;52.046;4.854;2023-02-15T03:57:16;126.07;;;21.70;;
69678;SDS011;56915;52.046;4.854;2023-02-15T04:00:21;158.48;;;22.30;;
69678;SDS011;56915;52.046;4.854;2023-02-15T04:03:18;118.55;;;21.27;;
69678;SDS011;56915;52.046;4.854;2023-02-15T04:05:59;90.18;;;19.77;;
69678;SDS011;56915;52.046;4.854;2023-02-15T04:08:28;174.10;;;23.07;;
69678;SDS011;56915;52.046;4.854;2023-02-15T04:11:14;139.45;;;20.73;;
69678;SDS011;56915;52.046;4.854;2023-02-15T04:13:41;167.02;;;21.38;;
69678;SDS011;56915;52.046;4.854;2023-02-15T04:16:08;119.68;;;19.10;;
69678;SDS011;56915;52.046;4.854;2023-02-15T04:18:36;94.07;;;19.90;;
69678;SDS011;56915;52.046;4.854;2023-02-15T04:21:24;122.50;;;18.63;;
69678;SDS011;56915;52.046;4.854;2023-02-15T04:24:10;124.90;;;18.73;;
69678;SDS011;56915;52.046;4.854;2023-02-15T04:26:56;89.47;;;18.85;;
69678;SDS011;56915;52.046;4.854;2023-02-15T04:29:25;151.95;;;20.20;;
69678;SDS011;56915;52.046;4.854;2023-02-15T04:31:53;133.25;;;20.17;;
69678;SDS011;56915;52.046;4.854;2023-02-15T04:34:22;142.07;;;21.30;;
69678;SDS011;56915;52.046;4.854;2023-02-15T04:36:49;174.45;;;22.42;;
69678;SDS011;56915;52.046;4.854;2023-02-15T04:39:17;131.13;;;23.30;;
69678;SDS011;56915;52.046;4.854;2023-02-15T04:41:45;80.93;;;21.95;;
69678;SDS011;56915;52.046;4.854;2023-02-15T04:44:13;92.78;;;22.88;;
69678;SDS011;56915;52.046;4.854;2023-02-15T04:46:41;103.43;;;24.00;;
69678;SDS011;56915;52.046;4.854;2023-02-15T04:49:08;110.10;;;22.98;;
69678;SDS011;56915;52.046;4.854;2023-02-15T04:51:35;148.05;;;24.35;;
69678;SDS011;56915;52.046;4.854;2023-02-15T04:54:02;123.43;;;23.63;;
69678;SDS011;56915;52.046;4.854;2023-02-15T04:56:29;135.40;;;23.88;;
69678;SDS011;56915;52.046;4.854;2023-02-15T04:58:56;145.37;;;23.93;;
69678;SDS011;56915;52.046;4.854;2023-02-15T05:01:23;221.88;;;25.55;;
69678;SDS011;56915;52.046;4.854;2023-02-15T05:03:50;192.10;;;24.35;;
69678;SDS011;56915;52.046;4.854;2023-02-15T05:06:17;244.98;;;24.25;;
69678;SDS011;56915;52.046;4.854;2023-02-15T05:08:44;237.45;;;24.48;;
69678;SDS011;56915;52.046;4.854;2023-02-15T05:11:10;203.93;;;23.57;;
69678;SDS011;56915;52.046;4.854;2023-02-15T05:13:37;264.10;;;25.17;;
69678;SDS011;56915;52.046;4.854;2023-02-15T05:16:04;232.95;;;23.05;;
69678;SDS011;56915;52.046;4.854;2023-02-15T05:18:31;209.68;;;22.38;;
69678;SDS011;56915;52.046;4.854;2023-02-15T05:20:57;201.43;;;23.73;;
69678;SDS011;56915;52.046;4.854;2023-02-15T05:23:26;258.20;;;24.27;;
69678;SDS011;56915;52.046;4.854;2023-02-15T05:25:52;260.63;;;25.30;;
69678;SDS011;56915;52.046;4.854;2023-02-15T05:28:38;230.93;;;23.90;;
69678;SDS011;56915;52.046;4.854;2023-02-15T05:33:39;213.23;;;22.75;;
69678;SDS011;56915;52.046;4.854;2023-02-15T05:36:06;220.70;;;23.43;;
69678;SDS011;56915;52.046;4.854;2023-02-15T05:38:33;175.23;;;22.33;;
69678;SDS011;56915;52.046;4.854;2023-02-15T05:41:03;275.77;;;24.52;;
69678;SDS011;56915;52.046;4.854;2023-02-15T05:43:33;161.18;;;22.60;;
69678;SDS011;56915;52.046;4.854;2023-02-15T05:46:01;155.45;;;22.45;;
69678;SDS011;56915;52.046;4.854;2023-02-15T05:48:29;160.47;;;22.27;;
69678;SDS011;56915;52.046;4.854;2023-02-15T05:51:06;233.45;;;22.17;;
69678;SDS011;56915;52.046;4.854;2023-02-15T05:53:36;151.50;;;21.63;;
69678;SDS011;56915;52.046;4.854;2023-02-15T05:56:05;187.40;;;22.45;;
69678;SDS011;56915;52.046;4.854;2023-02-15T05:58:34;189.07;;;21.95;;
69678;SDS011;56915;52.046;4.854;2023-02-15T06:01:12;107.33;;;20.93;;
69678;SDS011;56915;52.046;4.854;2023-02-15T06:03:45;138.05;;;20.75;;
69678;SDS011;56915;52.046;4.854;2023-02-15T06:06:12;130.65;;;19.67;;
69678;SDS011;56915;52.046;4.854;2023-02-15T06:08:39;160.52;;;20.95;;
69678;SDS011;56915;52.046;4.854;2023-02-15T06:11:06;220.30;;;23.00;;
69678;SDS011;56915;52.046;4.854;2023-02-15T06:13:34;192.53;;;22.30;;
69678;SDS011;56915;52.046;4.854;2023-02-15T06:16:04;170.23;;;21.70;;
69678;SDS011;56915;52.046;4.854;2023-02-15T06:18:31;145.57;;;22.33;;
69678;SDS011;56915;52.046;4.854;2023-02-15T06:20:58;122.20;;;21.10;;
69678;SDS011;56915;52.046;4.854;2023-02-15T06:23:25;112.95;;;20.95;;
69678;SDS011;56915;52.046;4.854;2023-02-15T06:25:52;111.40;;;21.20;;
69678;SDS011;56915;52.046;4.854;2023-02-15T06:28:19;83.05;;;21.35;;
69678;SDS011;56915;52.046;4.854;2023-02-15T06:30:46;77.60;;;21.58;;
69678;SDS011;56915;52.046;4.854;2023-02-15T06:33:13;72.93;;;21.60;;
69678;SDS011;56915;52.046;4.854;2023-02-15T06:35:40;92.60;;;21.80;;
69678;SDS011;56915;52.046;4.854;2023-02-15T06:38:07;77.97;;;21.67;;
69678;SDS011;56915;52.046;4.854;2023-02-15T06:40:33;82.43;;;22.30;;
69678;SDS011;56915;52.046;4.854;2023-02-15T06:43:00;78.93;;;22.25;;
69678;SDS011;56915;52.046;4.854;2023-02-15T06:45:27;78.88;;;22.10;;
69678;SDS011;56915;52.046;4.854;2023-02-15T06:47:54;79.47;;;21.27;;
69678;SDS011;56915;52.046;4.854;2023-02-15T06:50:20;79.43;;;22.00;;
69678;SDS011;56915;52.046;4.854;2023-02-15T06:52:47;78.40;;;22.75;;
69678;SDS011;56915;52.046;4.854;2023-02-15T06:55:14;77.95;;;22.50;;
69678;SDS011;56915;52.046;4.854;2023-02-15T06:57:41;76.20;;;22.00;;
69678;SDS011;56915;52.046;4.854;2023-02-15T07:00:08;79.53;;;21.67;;
69678;SDS011;56915;52.046;4.854;2023-02-15T07:02:35;77.17;;;22.57;;
69678;SDS011;56915;52.046;4.854;2023-02-15T07:05:02;81.45;;;21.95;;
69678;SDS011;56915;52.046;4.854;2023-02-15T07:07:34;78.75;;;21.77;;
69678;SDS011;56915;52.046;4.854;2023-02-15T07:10:01;78.40;;;22.85;;
69678;SDS011;56915;52.046;4.854;2023-02-15T07:12:28;81.78;;;23.23;;
69678;SDS011;56915;52.046;4.854;2023-02-15T07:15:08;86.00;;;22.57;;
69678;SDS011;56915;52.046;4.854;2023-02-15T07:17:39;88.45;;;22.08;;
69678;SDS011;56915;52.046;4.854;2023-02-15T07:20:07;84.93;;;22.73;;
69678;SDS011;56915;52.046;4.854;2023-02-15T07:22:41;75.60;;;21.83;;
69678;SDS011;56915;52.046;4.854;2023-02-15T07:25:09;70.90;;;21.85;;
69678;SDS011;56915;52.046;4.854;2023-02-15T07:27:37;71.10;;;22.43;;
69678;SDS011;56915;52.046;4.854;2023-02-15T07:30:05;77.20;;;22.80;;
69678;SDS011;56915;52.046;4.854;2023-02-15T07:32:33;73.13;;;22.15;;
69678;SDS011;56915;52.046;4.854;2023-02-15T07:35:00;70.15;;;22.13;;
69678;SDS011;56915;52.046;4.854;2023-02-15T07:37:27;73.30;;;22.20;;
69678;SDS011;56915;52.046;4.854;2023-02-15T07:39:54;67.73;;;21.67;;
69678;SDS011;56915;52.046;4.854;2023-02-15T07:42:21;68.40;;;23.38;;
69678;SDS011;56915;52.046;4.854;2023-02-15T07:44:48;72.05;;;22.92;;
69678;SDS011;56915;52.046;4.854;2023-02-15T07:47:15;68.78;;;23.13;;
69678;SDS011;56915;52.046;4.854;2023-02-15T07:49:42;70.95;;;23.50;;
69678;SDS011;56915;52.046;4.854;2023-02-15T07:52:09;74.37;;;23.77;;
69678;SDS011;56915;52.046;4.854;2023-02-15T07:54:36;66.13;;;23.25;;
69678;SDS011;56915;52.046;4.854;2023-02-15T07:57:02;72.60;;;23.95;;
69678;SDS011;56915;52.046;4.854;2023-02-15T07:59:30;67.78;;;23.65;;
69678;SDS011;56915;52.046;4.854;2023-02-15T08:01:57;74.07;;;24.08;;
69678;SDS011;56915;52.046;4.854;2023-02-15T08:04:27;69.03;;;23.10;;
69678;SDS011;56915;52.046;4.854;2023-02-15T08:06:53;72.00;;;23.08;;
69678;SDS011;56915;52.046;4.854;2023-02-15T08:09:21;78.93;;;24.73;;
69678;SDS011;56915;52.046;4.854;2023-02-15T08:11:48;76.15;;;24.35;;
69678;SDS011;56915;52.046;4.854;2023-02-15T08:14:16;74.07;;;24.60;;
69678;SDS011;56915;52.046;4.854;2023-02-15T08:16:45;70.37;;;23.67;;
69678;SDS011;56915;52.046;4.854;2023-02-15T08:19:21;69.95;;;26.02;;
69678;SDS011;56915;52.046;4.854;2023-02-15T08:21:50;74.15;;;25.83;;
69678;SDS011;56915;52.046;4.854;2023-02-15T08:24:18;71.40;;;25.90;;
69678;SDS011;56915;52.046;4.854;2023-02-15T08:26:47;76.20;;;26.58;;
69678;SDS011;56915;52.046;4.854;2023-02-15T08:29:16;74.87;;;26.73;;
69678;SDS011;56915;52.046;4.854;2023-02-15T08:31:49;75.18;;;27.60;;
69678;SDS011;56915;52.046;4.854;2023-02-15T08:34:19;74.32;;;27.08;;
69678;SDS011;56915;52.046;4.854;2023-02-15T08:36:47;71.88;;;26.33;;
69678;SDS011;56915;52.046;4.854;2023-02-15T08:39:14;70.57;;;27.33;;
69678;SDS011;56915;52.046;4.854;2023-02-15T08:41:42;72.30;;;26.90;;
69678;SDS011;56915;52.046;4.854;2023-02-15T08:44:10;75.63;;;27.80;;
69678;SDS011;56915;52.046;4.854;2023-02-15T08:46:38;78.72;;;28.13;;
69678;SDS011;56915;52.046;4.854;2023-02-15T08:49:06;73.80;;;27.60;;
69678;SDS011;56915;52.046;4.854;2023-02-15T08:51:34;68.40;;;26.75;;
69678;SDS011;56915;52.046;4.854;2023-02-15T08:54:03;70.63;;;27.37;;
69678;SDS011;56915;52.046;4.854;2023-02-15T08:56:36;67.32;;;26.67;;
69678;SDS011;56915;52.046;4.854;2023-02-15T08:59:04;69.40;;;27.58;;
69678;SDS011;56915;52.046;4.854;2023-02-15T09:01:32;76.55;;;27.67;;
69678;SDS011;56915;52.046;4.854;2023-02-15T09:04:04;64.78;;;26.63;;
69678;SDS011;56915;52.046;4.854;2023-02-15T09:06:35;68.53;;;27.27;;
69678;SDS011;56915;52.046;4.854;2023-02-15T09:09:03;67.78;;;28.15;;
69678;SDS011;56915;52.046;4.854;2023-02-15T09:11:33;69.70;;;27.98;;
69678;SDS011;56915;52.046;4.854;2023-02-15T09:14:08;66.97;;;26.95;;
69678;SDS011;56915;52.046;4.854;2023-02-15T09:16:44;64.50;;;26.20;;
69678;SDS011;56915;52.046;4.854;2023-02-15T09:19:17;65.93;;;26.57;;
69678;SDS011;56915;52.046;4.854;2023-02-15T09:21:45;61.47;;;26.17;;
69678;SDS011;56915;52.046;4.854;2023-02-15T09:24:13;66.75;;;27.25;;
69678;SDS011;56915;52.046;4.854;2023-02-15T09:26:41;63.75;;;25.65;;
69678;SDS011;56915;52.046;4.854;2023-02-15T09:29:10;62.35;;;25.63;;
69678;SDS011;56915;52.046;4.854;2023-02-15T09:31:41;61.27;;;25.87;;
69678;SDS011;56915;52.046;4.854;2023-02-15T09:34:13;64.25;;;26.40;;
69678;SDS011;56915;52.046;4.854;2023-02-15T09:36:42;62.95;;;25.48;;
69678;SDS011;56915;52.046;4.854;2023-02-15T09:39:11;60.30;;;25.60;;
69678;SDS011;56915;52.046;4.854;2023-02-15T09:55:51;61.50;;;26.15;;
69678;SDS011;56915;52.046;4.854;2023-02-15T10:06:32;61.10;;;27.20;;
69678;SDS011;56915;52.046;4.854;2023-02-15T10:19:44;61.45;;;26.48;;
69678;SDS011;56915;52.046;4.854;2023-02-15T10:25:19;62.10;;;26.57;;
69678;SDS011;56915;52.046;4.854;2023-02-15T10:27:59;58.42;;;27.10;;
69678;SDS011;56915;52.046;4.854;2023-02-15T10:30:37;60.60;;;26.70;;
69678;SDS011;56915;52.046;4.854;2023-02-15T10:33:42;56.58;;;26.60;;
69678;SDS011;56915;52.046;4.854;2023-02-15T10:42:11;59.75;;;27.40;;
69678;SDS011;56915;52.046;4.854;2023-02-15T10:59:24;60.50;;;27.25;;
69678;SDS011;56915;52.046;4.854;2023-02-15T11:07:40;56.07;;;27.07;;
69678;SDS011;56915;52.046;4.854;2023-02-15T11:12:43;59.45;;;28.50;;
69678;SDS011;56915;52.046;4.854;2023-02-15T11:17:47;59.78;;;27.80;;
69678;SDS011;56915;52.046;4.854;2023-02-15T11:20:33;53.17;;;26.97;;
69678;SDS011;56915;52.046;4.854;2023-02-15T11:23:19;55.40;;;27.33;;
69678;SDS011;56915;52.046;4.854;2023-02-15T11:25:52;57.92;;;27.67;;
69678;SDS011;56915;52.046;4.854;2023-02-15T11:28:33;63.15;;;27.40;;
69678;SDS011;56915;52.046;4.854;2023-02-15T11:34:27;60.63;;;27.73;;
69678;SDS011;56915;52.046;4.854;2023-02-15T11:37:18;58.83;;;27.50;;
69678;SDS011;56915;52.046;4.854;2023-02-15T11:39:51;55.40;;;27.70;;
69678;SDS011;56915;52.046;4.854;2023-02-15T11:47:33;54.10;;;27.23;;
69678;SDS011;56915;52.046;4.854;2023-02-15T11:50:00;56.75;;;27.50;;
69678;SDS011;56915;52.046;4.854;2023-02-15T11:52:27;57.67;;;27.30;;
69678;SDS011;56915;52.046;4.854;2023-02-15T11:54:54;60.65;;;26.55;;
69678;SDS011;56915;52.046;4.854;2023-02-15T12:00:06;53.90;;;26.43;;
69678;SDS011;56915;52.046;4.854;2023-02-15T12:02:42;54.55;;;26.00;;
69678;SDS011;56915;52.046;4.854;2023-02-15T12:05:14;55.88;;;25.42;;
69678;SDS011;56915;52.046;4.854;2023-02-15T12:07:46;53.60;;;26.08;;
69678;SDS011;56915;52.046;4.854;2023-02-15T12:15:45;54.58;;;27.15;;
69678;SDS011;56915;52.046;4.854;2023-02-15T12:21:11;55.20;;;26.52;;
69678;SDS011;56915;52.046;4.854;2023-02-15T12:23:42;52.47;;;26.63;;
69678;SDS011;56915;52.046;4.854;2023-02-15T12:26:14;55.70;;;27.07;;
69678;SDS011;56915;52.046;4.854;2023-02-15T12:29:12;53.05;;;26.23;;
69678;SDS011;56915;52.046;4.854;2023-02-15T12:31:49;55.05;;;26.95;;
69678;SDS011;56915;52.046;4.854;2023-02-15T12:36:50;53.67;;;26.90;;
69678;SDS011;56915;52.046;4.854;2023-02-15T12:39:25;54.43;;;26.57;;
69678;SDS011;56915;52.046;4.854;2023-02-15T12:42:03;52.60;;;26.48;;
69678;SDS011;56915;52.046;4.854;2023-02-15T12:44:40;51.70;;;26.52;;
69678;SDS011;56915;52.046;4.854;2023-02-15T12:47:24;51.42;;;27.08;;
69678;SDS011;56915;52.046;4.854;2023-02-15T12:55:52;55.42;;;28.02;;
69678;SDS011;56915;52.046;4.854;2023-02-15T12:58:20;57.22;;;26.92;;
69678;SDS011;56915;52.046;4.854;2023-02-15T13:01:08;55.55;;;27.45;;
69678;SDS011;56915;52.046;4.854;2023-02-15T13:04:03;57.42;;;27.73;;
69678;SDS011;56915;52.046;4.854;2023-02-15T13:06:33;54.50;;;26.37;;
69678;SDS011;56915;52.046;4.854;2023-02-15T13:09:14;57.22;;;26.67;;
69678;SDS011;56915;52.046;4.854;2023-02-15T13:11:45;55.05;;;27.23;;
69678;SDS011;56915;52.046;4.854;2023-02-15T13:14:20;57.78;;;27.05;;
69678;SDS011;56915;52.046;4.854;2023-02-15T13:16:58;55.08;;;27.42;;
69678;SDS011;56915;52.046;4.854;2023-02-15T13:19:33;52.90;;;25.83;;
69678;SDS011;56915;52.046;4.854;2023-02-15T13:22:05;51.20;;;26.38;;
69678;SDS011;56915;52.046;4.854;2023-02-15T13:24:41;58.72;;;26.80;;
69678;SDS011;56915;52.046;4.854;2023-02-15T13:27:12;51.45;;;26.25;;
69678;SDS011;56915;52.046;4.854;2023-02-15T13:29:50;46.95;;;25.17;;
69678;SDS011;56915;52.046;4.854;2023-02-15T13:32:30;49.60;;;24.77;;
69678;SDS011;56915;52.046;4.854;2023-02-15T13:35:03;47.58;;;24.05;;
69678;SDS011;56915;52.046;4.854;2023-02-15T13:37:37;46.30;;;24.52;;
69678;SDS011;56915;52.046;4.854;2023-02-15T13:40:12;50.15;;;24.33;;
69678;SDS011;56915;52.046;4.854;2023-02-15T13:42:49;48.15;;;24.92;;
69678;SDS011;56915;52.046;4.854;2023-02-15T13:45:30;47.30;;;25.10;;
69678;SDS011;56915;52.046;4.854;2023-02-15T14:10:15;54.58;;;24.80;;
69678;SDS011;56915;52.046;4.854;2023-02-15T14:15:58;45.45;;;23.85;;
69678;SDS011;56915;52.046;4.854;2023-02-15T14:18:31;50.70;;;24.92;;
69678;SDS011;56915;52.046;4.854;2023-02-15T14:29:53;50.55;;;24.80;;
69678;SDS011;56915;52.046;4.854;2023-02-15T14:35:02;53.35;;;25.83;;
69678;SDS011;56915;52.046;4.854;2023-02-15T14:37:46;49.25;;;24.48;;
69678;SDS011;56915;52.046;4.854;2023-02-15T14:40:49;50.50;;;24.40;;
69678;SDS011;56915;52.046;4.854;2023-02-15T14:54:10;51.57;;;24.53;;
69678;SDS011;56915;52.046;4.854;2023-02-15T14:56:47;48.63;;;24.42;;
69678;SDS011;56915;52.046;4.854;2023-02-15T15:02:27;52.25;;;25.67;;
69678;SDS011;56915;52.046;4.854;2023-02-15T15:05:20;53.03;;;25.17;;
69678;SDS011;56915;52.046;4.854;2023-02-15T15:08:19;51.17;;;24.17;;
69678;SDS011;56915;52.046;4.854;2023-02-15T15:14:15;49.03;;;24.20;;
69678;SDS011;56915;52.046;4.854;2023-02-15T15:17:01;50.28;;;23.65;;
69678;SDS011;56915;52.046;4.854;2023-02-15T15:22:23;47.43;;;23.47;;
69678;SDS011;56915;52.046;4.854;2023-02-15T15:24:53;52.70;;;23.52;;
69678;SDS011;56915;52.046;4.854;2023-02-15T15:32:48;53.53;;;24.80;;
69678;SDS011;56915;52.046;4.854;2023-02-15T15:35:27;52.13;;;24.37;;
69678;SDS011;56915;52.046;4.854;2023-02-15T15:47:14;51.22;;;24.63;;
69678;SDS011;56915;52.046;4.854;2023-02-15T15:49:54;50.23;;;23.03;;
69678;SDS011;56915;52.046;4.854;2023-02-15T15:52:23;50.47;;;23.67;;
69678;SDS011;56915;52.046;4.854;2023-02-15T15:54:56;51.10;;;23.73;;
69678;SDS011;56915;52.046;4.854;2023-02-15T15:57:39;53.40;;;24.73;;
69678;SDS011;56915;52.046;4.854;2023-02-15T16:00:23;48.50;;;23.70;;
69678;SDS011;56915;52.046;4.854;2023-02-15T16:03:14;50.17;;;24.20;;
69678;SDS011;56915;52.046;4.854;2023-02-15T16:05:42;53.60;;;25.17;;
69678;SDS011;56915;52.046;4.854;2023-02-15T16:08:09;50.15;;;25.00;;
69678;SDS011;56915;52.046;4.854;2023-02-15T16:10:36;53.90;;;24.90;;
69678;SDS011;56915;52.046;4.854;2023-02-15T16:13:04;52.20;;;25.13;;
69678;SDS011;56915;52.046;4.854;2023-02-15T16:15:45;57.30;;;25.37;;
69678;SDS011;56915;52.046;4.854;2023-02-15T16:18:16;58.00;;;25.77;;
69678;SDS011;56915;52.046;4.854;2023-02-15T16:20:51;56.38;;;25.92;;
69678;SDS011;56915;52.046;4.854;2023-02-15T16:29:12;57.63;;;25.80;;
69678;SDS011;56915;52.046;4.854;2023-02-15T16:32:01;56.63;;;25.80;;
69678;SDS011;56915;52.046;4.854;2023-02-15T16:34:30;56.50;;;26.13;;
69678;SDS011;56915;52.046;4.854;2023-02-15T16:37:17;59.92;;;26.08;;
69678;SDS011;56915;52.046;4.854;2023-02-15T16:39:48;60.53;;;26.25;;
69678;SDS011;56915;52.046;4.854;2023-02-15T16:42:17;55.97;;;26.30;;
69678;SDS011;56915;52.046;4.854;2023-02-15T16:44:45;60.65;;;26.50;;
69678;SDS011;56915;52.046;4.854;2023-02-15T16:47:36;61.45;;;27.23;;
69678;SDS011;56915;52.046;4.854;2023-02-15T16:50:06;58.22;;;26.65;;
69678;SDS011;56915;52.046;4.854;2023-02-15T16:52:44;65.25;;;30.40;;
69678;SDS011;56915;52.046;4.854;2023-02-15T16:55:22;79.87;;;36.93;;
69678;SDS011;56915;52.046;4.854;2023-02-15T16:57:50;80.72;;;41.95;;
69678;SDS011;56915;52.046;4.854;2023-02-15T17:00:22;85.57;;;42.53;;
69678;SDS011;56915;52.046;4.854;2023-02-15T17:02:59;82.50;;;38.72;;
69678;SDS011;56915;52.046;4.854;2023-02-15T17:05:31;80.55;;;37.95;;
69678;SDS011;56915;52.046;4.854;2023-02-15T17:10:32;69.90;;;30.60;;
69678;SDS011;56915;52.046;4.854;2023-02-15T17:13:11;68.47;;;32.30;;
69678;SDS011;56915;52.046;4.854;2023-02-15T17:15:43;74.38;;;33.53;;
69678;SDS011;56915;52.046;4.854;2023-02-15T17:18:29;68.05;;;30.52;;
69678;SDS011;56915;52.046;4.854;2023-02-15T17:21:18;69.80;;;30.13;;
69678;SDS011;56915;52.046;4.854;2023-02-15T17:23:51;70.35;;;30.58;;
69678;SDS011;56915;52.046;4.854;2023-02-15T17:26:29;70.63;;;30.20;;
69678;SDS011;56915;52.046;4.854;2023-02-15T17:28:59;67.20;;;29.88;;
69678;SDS011;56915;52.046;4.854;2023-02-15T17:31:35;69.40;;;28.65;;
69678;SDS011;56915;52.046;4.854;2023-02-15T17:34:03;69.03;;;28.60;;
69678;SDS011;56915;52.046;4.854;2023-02-15T17:36:30;61.28;;;27.60;;
69678;SDS011;56915;52.046;4.854;2023-02-15T17:41:25;64.18;;;26.65;;
69678;SDS011;56915;52.046;4.854;2023-02-15T17:43:53;59.38;;;25.45;;
69678;SDS011;56915;52.046;4.854;2023-02-15T17:46:20;64.97;;;26.20;;
69678;SDS011;56915;52.046;4.854;2023-02-15T17:51:40;61.10;;;26.15;;
69678;SDS011;56915;52.046;4.854;2023-02-15T17:54:07;60.90;;;26.02;;
69678;SDS011;56915;52.046;4.854;2023-02-15T17:56:54;64.00;;;26.25;;
69678;SDS011;56915;52.046;4.854;2023-02-15T17:59:23;63.47;;;25.50;;
69678;SDS011;56915;52.046;4.854;2023-02-15T18:01:50;67.15;;;26.50;;
69678;SDS011;56915;52.046;4.854;2023-02-15T18:04:36;61.10;;;26.10;;
69678;SDS011;56915;52.046;4.854;2023-02-15T18:07:21;62.17;;;26.25;;
69678;SDS011;56915;52.046;4.854;2023-02-15T18:10:14;56.83;;;25.38;;
69678;SDS011;56915;52.046;4.854;2023-02-15T18:13:02;61.07;;;25.63;;
69678;SDS011;56915;52.046;4.854;2023-02-15T18:15:35;62.03;;;26.17;;
69678;SDS011;56915;52.046;4.854;2023-02-15T18:18:02;66.50;;;25.42;;
69678;SDS011;56915;52.046;4.854;2023-02-15T18:20:33;58.78;;;25.20;;